Time;durP1;ratioP1;P1;durP2;ratioP2;P2;SDS_P1;SDS_P2;PMS_P1;PMS_P2;Temp;Humidity;BMP_temperature;BMP_pressure;BME280_temperature;BME280_humidity;BME280_pressure;Samples;Min_cycle;Max_cycle;Signal;HPM_P1;HPM_P2
2022/05/03 00:00:16;;;;;;;8.67;7.87;;;15.90;69.60;;;-142.21;100.00;112049.66;5042886;28;20524;-77
2022/05/03 00:02:57;;;;;;;8.80;7.90;;;15.90;69.20;;;-142.21;100.00;112049.66;5053587;28;20444;-77
2022/05/03 00:05:39;;;;;;;8.50;7.70;;;15.80;69.20;;;-142.21;100.00;112049.66;5054710;28;20440;-77
2022/05/03 00:08:20;;;;;;;8.30;7.50;;;15.80;69.70;;;-142.21;100.00;112049.66;5054052;28;20518;-77
2022/05/03 00:11:06;;;;;;;8.10;7.40;;;15.80;69.40;;;-142.21;100.00;112049.66;5053530;28;20531;-76
2022/05/03 00:13:46;;;;;;;7.97;7.17;;;15.80;69.30;;;-142.21;100.00;112049.66;5054200;28;20468;-77
2022/05/03 00:16:16;;;;;;;8.30;7.50;;;15.90;68.90;;;-142.21;100.00;112049.66;5054074;28;20523;-77
2022/05/03 00:18:45;;;;;;;7.93;7.13;;;15.90;68.30;;;-142.21;100.00;112049.66;5053651;28;20490;-76
2022/05/03 00:21:13;;;;;;;8.73;7.80;;;15.90;68.80;;;-142.21;100.00;112049.66;5052981;28;20458;-77
2022/05/03 00:23:41;;;;;;;8.47;7.73;;;15.80;69.20;;;-142.21;100.00;112049.66;5053988;28;20506;-76
2022/05/03 00:26:09;;;;;;;9.03;8.13;;;15.70;69.80;;;-142.21;100.00;112049.66;5053070;28;20452;-77
2022/05/03 00:28:39;;;;;;;9.33;8.27;;;15.70;69.10;;;-142.21;100.00;112049.66;5053539;28;20528;-76
2022/05/03 00:31:08;;;;;;;8.93;8.03;;;15.60;69.30;;;-142.21;100.00;112049.66;5053749;28;20482;-77
2022/05/03 00:33:36;;;;;;;9.93;9.03;;;15.60;69.20;;;-142.21;100.00;112049.66;5053944;28;20520;-78
2022/05/03 00:36:05;;;;;;;9.63;8.73;;;15.60;69.00;;;-142.21;100.00;112049.66;5053199;28;20466;-77
2022/05/03 00:38:34;;;;;;;9.60;8.70;;;15.50;69.20;;;-142.21;100.00;112049.66;5054191;28;20540;-77
2022/05/03 00:41:06;;;;;;;9.27;8.37;;;15.40;69.10;;;-142.21;100.00;112049.66;5053300;28;20452;-77
2022/05/03 00:43:47;;;;;;;8.83;8.03;;;15.30;69.70;;;-142.21;100.00;112049.66;5053977;28;20447;-77
2022/05/03 00:46:20;;;;;;;10.13;9.13;;;15.20;69.40;;;-142.21;100.00;112049.66;5052619;28;20974;-77
2022/05/03 00:49:19;;;;;;;9.83;8.87;;;15.20;69.50;;;-142.21;100.00;112049.66;5053655;28;20471;-77
2022/05/03 00:52:01;;;;;;;9.27;8.27;;;15.20;70.20;;;-142.21;100.00;112049.66;5046107;28;20518;-77
2022/05/03 00:54:44;;;;;;;9.97;7.93;;;15.20;69.70;;;-142.21;100.00;112049.66;5052725;28;20452;-76
2022/05/03 00:57:37;;;;;;;9.37;8.47;;;15.20;69.60;;;-142.21;100.00;112049.66;5051913;28;20443;-76
2022/05/03 01:00:09;;;;;;;8.90;8.00;;;15.10;70.10;;;-142.21;100.00;112049.66;5048196;28;20433;-76
2022/05/03 01:03:10;;;;;;;9.43;8.53;;;15.10;70.50;;;-142.21;100.00;112049.66;5052323;28;20448;-77
2022/05/03 01:06:02;;;;;;;11.20;8.30;;;15.10;70.10;;;-142.21;100.00;112049.66;5042614;28;20786;-76
2022/05/03 01:08:47;;;;;;;10.13;8.17;;;15.00;70.20;;;-142.21;100.00;112049.66;5052151;28;20488;-76
2022/05/03 01:11:34;;;;;;;9.30;8.40;;;15.00;70.70;;;-142.21;100.00;112049.66;5053026;28;20443;-77
2022/05/03 01:14:21;;;;;;;8.77;7.87;;;15.00;70.90;;;-142.21;100.00;112049.66;5052803;28;20523;-77
2022/05/03 01:17:00;;;;;;;8.50;7.70;;;15.00;70.30;;;-142.21;100.00;112049.66;5052505;28;20440;-76
2022/05/03 01:19:44;;;;;;;10.53;7.97;;;14.90;70.20;;;-142.21;100.00;112049.66;5052653;28;20478;-77
2022/05/03 01:22:50;;;;;;;8.63;7.83;;;14.80;70.50;;;-142.21;100.00;112049.66;5052908;28;20444;-77
2022/05/03 01:25:52;;;;;;;9.30;7.40;;;14.80;71.40;;;-142.21;100.00;112049.66;5032986;28;20495;-77
2022/05/03 01:28:31;;;;;;;7.87;7.07;;;14.90;69.90;;;-142.21;100.00;112049.66;5046659;28;20536;-77
2022/05/03 01:31:06;;;;;;;8.73;7.83;;;15.00;69.10;;;-142.21;100.00;112049.66;5051662;28;20507;-77
2022/05/03 01:33:39;;;;;;;8.40;7.60;;;15.00;68.90;;;-142.21;100.00;112049.66;5052606;28;20527;-77
2022/05/03 01:36:09;;;;;;;9.23;7.50;;;15.10;69.10;;;-142.21;100.00;112049.66;5052149;28;20432;-78
2022/05/03 01:39:03;;;;;;;8.10;7.30;;;14.90;68.80;;;-142.21;100.00;112049.66;5051056;28;20447;-77
2022/05/03 01:41:43;;;;;;;9.07;7.83;;;14.80;70.50;;;-142.21;100.00;112049.66;5052653;28;20447;-76
2022/05/03 01:44:23;;;;;;;9.13;8.23;;;14.70;70.20;;;-142.21;100.00;112049.66;5052208;28;20483;-77
2022/05/03 01:46:58;;;;;;;8.33;7.53;;;14.70;70.40;;;-142.21;100.00;112049.66;5053078;28;20874;-78
2022/05/03 01:53:01;;;;;;;9.17;8.17;;;14.50;70.00;;;-142.21;100.00;112049.66;5052158;28;20531;-77
2022/05/03 01:56:25;;;;;;;9.00;7.67;;;14.50;69.90;;;-142.21;100.00;112049.66;5052378;28;20519;-77
2022/05/03 01:59:11;;;;;;;7.93;7.13;;;14.60;69.70;;;-142.21;100.00;112049.66;5052442;28;20451;-78
2022/05/03 02:01:56;;;;;;;8.03;7.33;;;14.50;70.30;;;-142.21;100.00;112049.66;5052738;28;20523;-77
2022/05/03 02:04:57;;;;;;;7.57;6.70;;;14.50;70.10;;;-142.21;100.00;112049.66;5051978;28;20474;-76
2022/05/03 02:07:50;;;;;;;8.30;7.50;;;14.40;69.20;;;-142.21;100.00;112049.66;5051305;28;20478;-76
2022/05/03 02:10:38;;;;;;;7.97;7.23;;;14.40;69.70;;;-142.21;100.00;112049.66;5050249;28;20477;-77
2022/05/03 02:13:27;;;;;;;9.00;7.47;;;14.30;69.90;;;-142.21;100.00;112049.66;5052222;28;20440;-77
2022/05/03 02:16:09;;;;;;;8.30;7.37;;;14.30;69.80;;;-142.21;100.00;112049.66;5052502;28;20519;-76
2022/05/03 02:19:00;;;;;;;9.27;7.30;;;14.30;70.00;;;-142.21;100.00;112049.66;5052028;28;20498;-77
2022/05/03 02:21:40;;;;;;;7.97;7.17;;;14.30;70.50;;;-142.21;100.00;112049.66;5051946;28;20562;-77
2022/05/03 02:24:21;;;;;;;8.27;7.47;;;14.20;69.80;;;-142.21;100.00;112049.66;5052332;28;20515;-76
2022/05/03 02:26:59;;;;;;;7.00;6.30;;;14.10;70.30;;;-142.21;100.00;112049.66;5051069;28;20944;-77
2022/05/03 02:29:37;;;;;;;8.07;7.27;;;14.20;70.00;;;-142.21;100.00;112049.66;5051651;28;20504;-77
2022/05/03 02:32:10;;;;;;;8.80;7.67;;;14.10;70.90;;;-142.21;100.00;112049.66;5051047;28;20443;-77
2022/05/03 02:34:48;;;;;;;9.83;7.43;;;14.10;70.00;;;-142.21;100.00;112049.66;5051579;28;20497;-77
2022/05/03 02:37:18;;;;;;;7.60;6.80;;;14.10;69.80;;;-142.21;100.00;112049.66;5051822;28;20436;-77
2022/05/03 02:39:56;;;;;;;6.83;6.13;;;14.10;69.80;;;-142.21;100.00;112049.66;5051764;28;20841;-77
2022/05/03 02:42:23;;;;;;;6.27;5.67;;;14.20;69.10;;;-142.21;100.00;112049.66;5052487;28;20519;-77
2022/05/03 02:44:54;;;;;;;7.10;6.27;;;14.20;68.70;;;-142.21;100.00;112049.66;5055168;28;20458;-77
2022/05/03 02:47:36;;;;;;;7.17;6.47;;;14.30;68.30;;;-142.21;100.00;112049.66;5056056;28;20523;-76
2022/05/03 02:50:10;;;;;;;8.30;6.83;;;14.40;67.70;;;-142.21;100.00;112049.66;5055157;28;20459;-76
2022/05/03 02:52:57;;;;;;;7.00;6.37;;;14.30;67.50;;;-142.21;100.00;112049.66;5055825;28;20440;-77
2022/05/03 02:55:51;;;;;;;8.37;7.40;;;14.20;68.10;;;-142.21;100.00;112049.66;5055181;28;20448;-76
2022/05/03 02:58:39;;;;;;;9.00;7.00;;;14.10;69.00;;;-142.21;100.00;112049.66;5049015;28;20528;-76
2022/05/03 03:04:14;;;;;;;9.60;7.17;;;13.90;67.80;;;-142.21;100.00;112049.66;5054884;28;20435;-76
2022/05/03 03:06:45;;;;;;;7.67;6.90;;;13.80;69.30;;;-142.21;100.00;112049.66;5055620;28;20436;-77
2022/05/03 03:09:25;;;;;;;8.40;7.60;;;13.70;68.90;;;-142.21;100.00;112049.66;5055146;28;20550;-76
2022/05/03 03:12:03;;;;;;;9.53;7.60;;;13.70;69.40;;;-142.21;100.00;112049.66;5055389;28;20458;-76
2022/05/03 03:14:40;;;;;;;7.83;6.47;;;13.70;69.70;;;-142.21;100.00;112049.66;5055415;28;20502;-76
2022/05/03 03:17:10;;;;;;;8.83;7.20;;;13.60;69.10;;;-142.21;100.00;112049.66;5054792;28;20518;-76
2022/05/03 03:20:03;;;;;;;7.03;6.33;;;13.70;68.90;;;-142.21;100.00;112049.66;5054984;28;20574;-77
2022/05/03 03:22:39;;;;;;;7.73;7.03;;;13.80;68.70;;;-142.21;100.00;112049.66;5054676;28;21275;-76
2022/05/03 03:25:09;;;;;;;9.30;7.47;;;13.90;68.60;;;-142.21;100.00;112049.66;5055394;28;20455;-76
2022/05/03 03:27:39;;;;;;;8.47;7.23;;;13.80;68.70;;;-142.21;100.00;112049.66;5051661;28;20494;-76
2022/05/03 03:30:10;;;;;;;7.73;6.93;;;13.80;69.10;;;-142.21;100.00;112049.66;5054657;28;20484;-76
2022/05/03 03:32:40;;;;;;;8.67;7.73;;;13.70;69.20;;;-142.21;100.00;112049.66;5054145;28;20448;-77
2022/05/03 03:35:09;;;;;;;7.90;7.20;;;13.60;69.30;;;-142.21;100.00;112049.66;5054813;28;20440;-76
2022/05/03 03:37:38;;;;;;;10.10;7.20;;;13.50;69.20;;;-142.21;100.00;112049.66;5054106;28;20453;-77
2022/05/03 03:40:08;;;;;;;8.57;7.10;;;13.60;70.30;;;-142.21;100.00;112049.66;5054804;28;20531;-77
2022/05/03 03:42:35;;;;;;;7.93;6.77;;;13.60;69.40;;;-142.21;100.00;112049.66;5053960;28;20467;-77
2022/05/03 03:45:07;;;;;;;8.30;7.13;;;13.60;69.20;;;-142.21;100.00;112049.66;5054989;28;20448;-77
2022/05/03 03:47:36;;;;;;;7.80;7.10;;;13.60;68.90;;;-142.21;100.00;112049.66;5054467;28;20479;-78
2022/05/03 03:50:04;;;;;;;9.30;6.97;;;13.60;68.50;;;-142.21;100.00;112049.66;5054702;28;20813;-76
2022/05/03 03:52:33;;;;;;;8.53;7.53;;;13.50;69.20;;;-142.21;100.00;112049.66;5054343;28;20527;-78
2022/05/03 03:55:04;;;;;;;8.23;6.60;;;13.40;69.10;;;-142.21;100.00;112049.66;5053714;28;20800;-78
2022/05/03 03:57:32;;;;;;;8.77;6.50;;;13.40;69.10;;;-142.21;100.00;112049.66;5069776;28;20448;-78
2022/05/03 04:00:02;;;;;;;9.17;7.10;;;13.40;68.60;;;-142.21;100.00;112049.66;5054075;28;20535;-77
2022/05/03 04:02:30;;;;;;;7.10;6.40;;;13.40;68.80;;;-142.21;100.00;112049.66;5054344;28;20940;-76
2022/05/03 04:04:58;;;;;;;8.60;6.97;;;13.40;68.60;;;-142.21;100.00;112049.66;5053738;28;21008;-77
2022/05/03 04:07:26;;;;;;;8.60;6.30;;;13.30;69.00;;;-142.21;100.00;112049.66;5053983;28;20490;-76
2022/05/03 04:09:53;;;;;;;7.33;6.60;;;13.40;69.40;;;-142.21;100.00;112049.66;5053778;28;20570;-75
2022/05/03 04:12:22;;;;;;;8.40;6.63;;;13.40;68.70;;;-142.21;100.00;112049.66;5054422;28;20477;-77
2022/05/03 04:14:50;;;;;;;6.70;6.00;;;13.40;69.20;;;-142.21;100.00;112049.66;5054020;28;20456;-76
2022/05/03 04:17:17;;;;;;;7.20;6.50;;;13.40;69.20;;;-142.21;100.00;112049.66;5053292;28;20952;-77
2022/05/03 04:19:45;;;;;;;7.70;7.00;;;13.40;68.90;;;-142.21;100.00;112049.66;5053943;28;20546;-77
2022/05/03 04:22:27;;;;;;;7.33;6.57;;;13.50;68.40;;;-142.21;100.00;112049.66;5053589;28;20862;-77
2022/05/03 04:24:57;;;;;;;8.73;6.67;;;13.50;69.20;;;-142.21;100.00;112049.66;5054321;28;20451;-76
2022/05/03 04:27:27;;;;;;;10.43;7.17;;;13.40;69.70;;;-142.21;100.00;112049.66;5053761;28;20472;-76
2022/05/03 04:29:55;;;;;;;11.83;7.53;;;13.30;69.70;;;-142.21;100.00;112049.66;5053569;28;20852;-76
2022/05/03 04:32:23;;;;;;;8.77;7.17;;;13.30;69.90;;;-142.21;100.00;112049.66;5052929;28;20527;-77
2022/05/03 04:34:51;;;;;;;6.70;6.00;;;13.30;70.10;;;-142.21;100.00;112049.66;5054108;28;20468;-78
2022/05/03 04:37:18;;;;;;;7.40;6.70;;;13.40;69.70;;;-142.21;100.00;112049.66;5053013;28;21023;-77
2022/05/03 04:39:45;;;;;;;6.73;6.13;;;13.40;69.60;;;-142.21;100.00;112049.66;5053535;28;20451;-77
2022/05/03 04:42:13;;;;;;;7.40;6.70;;;13.50;70.00;;;-142.21;100.00;112049.66;5053807;28;20455;-77
2022/05/03 04:44:42;;;;;;;7.70;6.90;;;13.40;69.90;;;-142.21;100.00;112049.66;5053685;28;20513;-77
2022/05/03 04:47:09;;;;;;;7.53;6.30;;;13.40;69.90;;;-142.21;100.00;112049.66;5052940;28;20937;-77
2022/05/03 04:49:36;;;;;;;7.50;6.80;;;13.40;69.60;;;-142.21;100.00;112049.66;5052892;28;20561;-77
2022/05/03 04:52:04;;;;;;;7.00;6.30;;;13.40;69.50;;;-142.21;100.00;112049.66;5053423;28;20531;-76
2022/05/03 04:54:32;;;;;;;6.97;6.23;;;13.40;69.70;;;-142.21;100.00;112049.66;5052582;28;20451;-76
2022/05/03 04:57:04;;;;;;;7.47;6.77;;;13.40;70.20;;;-142.21;100.00;112049.66;5053462;28;20937;-76
2022/05/03 04:59:31;;;;;;;7.50;6.47;;;13.40;70.10;;;-142.21;100.00;112049.66;5053111;28;20508;-76
2022/05/03 05:02:00;;;;;;;7.30;6.70;;;13.50;70.80;;;-142.21;100.00;112049.66;5052013;28;20455;-78
2022/05/03 05:04:27;;;;;;;7.70;7.00;;;13.40;70.70;;;-142.21;100.00;112049.66;5053242;28;20459;-76
2022/05/03 05:06:54;;;;;;;7.60;6.80;;;13.40;70.70;;;-142.21;100.00;112049.66;5052707;28;20543;-77
2022/05/03 05:09:22;;;;;;;7.17;6.47;;;13.40;70.40;;;-142.21;100.00;112049.66;5052827;28;20570;-76
2022/05/03 05:11:49;;;;;;;7.47;6.77;;;13.40;70.70;;;-142.21;100.00;112049.66;5052604;28;20484;-78
2022/05/03 05:14:19;;;;;;;7.03;6.43;;;13.50;70.60;;;-142.21;100.00;112049.66;5053355;28;20472;-78
2022/05/03 05:16:47;;;;;;;9.07;7.30;;;13.50;71.00;;;-142.21;100.00;112049.66;5052602;28;20455;-79
2022/05/03 05:19:16;;;;;;;7.47;6.70;;;13.60;71.20;;;-142.21;100.00;112049.66;5052943;28;20448;-79
2022/05/03 05:21:43;;;;;;;8.43;7.67;;;13.60;71.60;;;-142.21;100.00;112049.66;5052946;28;20535;-78
2022/05/03 05:24:11;;;;;;;7.43;6.73;;;13.70;71.60;;;-142.21;100.00;112049.66;5053016;28;20447;-79
2022/05/03 05:26:40;;;;;;;7.97;7.27;;;13.70;71.10;;;-142.21;100.00;112049.66;5053200;28;20498;-79
2022/05/03 05:29:07;;;;;;;8.50;7.53;;;13.80;72.10;;;-142.21;100.00;112049.66;5051817;28;20985;-79
2022/05/03 05:31:34;;;;;;;7.77;7.00;;;13.80;71.80;;;-142.21;100.00;112049.66;5052712;28;20944;-79
2022/05/03 05:34:01;;;;;;;8.30;7.50;;;13.90;71.40;;;-142.21;100.00;112049.66;5052049;28;20531;-80
2022/05/03 05:36:30;;;;;;;7.03;6.33;;;14.10;70.90;;;-142.21;100.00;112049.66;5052497;28;20543;-78
2022/05/03 05:38:58;;;;;;;7.90;7.10;;;14.20;70.40;;;-142.21;100.00;112049.66;5052820;28;20440;-76
2022/05/03 05:41:26;;;;;;;8.03;7.33;;;14.30;70.00;;;-142.21;100.00;112049.66;5052584;28;20452;-75
2022/05/03 05:43:53;;;;;;;9.27;7.73;;;14.40;70.10;;;-142.21;100.00;112049.66;5052472;28;20478;-76
2022/05/03 05:46:20;;;;;;;8.47;7.57;;;14.50;71.00;;;-142.21;100.00;112049.66;5051686;28;20491;-76
2022/05/03 05:48:47;;;;;;;9.53;7.00;;;14.50;71.70;;;-142.21;100.00;112049.66;5052512;28;20531;-76
2022/05/03 05:51:15;;;;;;;8.60;7.80;;;14.60;71.20;;;-142.21;100.00;112049.66;5051268;28;20535;-76
2022/05/03 05:53:43;;;;;;;9.70;7.70;;;14.70;71.30;;;-142.21;100.00;112049.66;5052177;28;20820;-76
2022/05/03 05:56:10;;;;;;;9.83;8.27;;;14.90;71.20;;;-142.21;100.00;112049.66;5052542;28;20448;-75
2022/05/03 05:58:38;;;;;;;8.53;7.73;;;15.00;71.20;;;-142.21;100.00;112049.66;5051972;28;20498;-76
2022/05/03 06:01:05;;;;;;;8.47;7.50;;;15.10;70.80;;;-142.21;100.00;112049.66;5051894;28;20450;-77
2022/05/03 06:03:34;;;;;;;8.87;8.07;;;15.20;71.00;;;-142.21;100.00;112049.66;5051868;28;20451;-77
2022/05/03 06:06:02;;;;;;;8.87;7.97;;;15.20;71.20;;;-142.21;100.00;112049.66;5052456;28;20459;-79
2022/05/03 06:08:29;;;;;;;9.60;8.63;;;15.20;71.70;;;-142.21;100.00;112049.66;5051852;28;20476;-78
2022/05/03 06:10:59;;;;;;;8.63;7.83;;;15.20;72.40;;;-142.21;100.00;112049.66;5052904;28;20496;-78
2022/05/03 06:13:27;;;;;;;9.37;8.13;;;15.30;71.80;;;-142.21;100.00;112049.66;5051641;28;20801;-78
2022/05/03 06:15:55;;;;;;;9.60;8.23;;;15.30;71.20;;;-142.21;100.00;112049.66;5052184;28;20805;-78
2022/05/03 06:18:23;;;;;;;8.80;8.00;;;15.40;71.30;;;-142.21;100.00;112049.66;5036248;28;20530;-78
2022/05/03 06:20:50;;;;;;;9.10;7.40;;;15.40;70.80;;;-142.21;100.00;112049.66;5056111;28;21221;-78
2022/05/03 06:23:17;;;;;;;8.93;8.03;;;15.40;71.00;;;-142.21;100.00;112049.66;5056700;28;20472;-78
2022/05/03 06:25:45;;;;;;;9.27;8.30;;;15.40;70.80;;;-142.21;100.00;112049.66;5055892;28;20789;-78
2022/05/03 06:28:14;;;;;;;8.53;7.67;;;15.60;70.60;;;-142.21;100.00;112049.66;5055611;28;20518;-77
2022/05/03 06:30:41;;;;;;;9.00;7.87;;;15.80;70.20;;;-142.21;100.00;112049.66;5055603;28;20882;-78
2022/05/03 06:33:09;;;;;;;8.83;7.93;;;16.00;69.70;;;-142.21;100.00;112049.66;5055860;28;20452;-78
2022/05/03 06:35:36;;;;;;;8.40;7.70;;;16.20;69.20;;;-142.21;100.00;112049.66;5056050;28;20479;-79
2022/05/03 06:38:04;;;;;;;7.77;7.07;;;16.30;68.80;;;-142.21;100.00;112049.66;5055401;28;20484;-78
2022/05/03 06:40:31;;;;;;;9.07;8.17;;;16.50;67.70;;;-142.21;100.00;112049.66;5056267;28;20527;-74
2022/05/03 06:43:05;;;;;;;8.13;7.37;;;16.60;70.50;;;-142.21;100.00;112049.66;5055112;28;20462;-78
2022/05/03 06:45:35;;;;;;;7.57;6.77;;;16.70;69.90;;;-142.21;100.00;112049.66;5055751;28;20578;-78
2022/05/03 06:48:02;;;;;;;7.00;6.40;;;19.90;64.60;;;-142.21;100.00;112049.66;5054834;28;20948;-77
2022/05/03 06:50:32;;;;;;;6.47;5.87;;;22.80;55.80;;;-142.21;100.00;112049.66;5055467;28;20495;-78
2022/05/03 06:53:02;;;;;;;6.70;5.87;;;25.40;50.70;;;-142.21;100.00;112049.66;5021200;28;20506;-75
2022/05/03 06:55:30;;;;;;;6.20;5.57;;;27.40;46.60;;;-142.21;100.00;112049.66;5055530;28;20800;-79
2022/05/03 06:57:57;;;;;;;5.90;5.40;;;28.60;44.50;;;-142.21;100.00;112049.66;5055136;28;20674;-79
2022/05/03 07:00:25;;;;;;;7.27;5.37;;;29.40;43.60;;;-142.21;100.00;112049.66;5055503;28;20207;-77
2022/05/03 07:02:54;;;;;;;6.20;5.70;;;29.50;42.60;;;-142.21;100.00;112049.66;5055855;28;20202;-79
2022/05/03 07:05:21;;;;;;;6.77;6.07;;;27.30;44.80;;;-142.21;100.00;112049.66;5055302;28;20198;-77
2022/05/03 07:07:48;;;;;;;6.53;5.93;;;26.00;47.50;;;-142.21;100.00;112049.66;5055081;28;20630;-78
2022/05/03 07:10:15;;;;;;;7.00;6.40;;;25.70;47.60;;;-142.21;100.00;112049.66;5054267;28;20264;-78
2022/05/03 07:12:42;;;;;;;6.90;6.30;;;26.20;47.00;;;-142.21;100.00;112049.66;5055335;28;20610;-79
2022/05/03 07:15:10;;;;;;;10.83;7.20;;;25.00;48.30;;;-142.21;100.00;112049.66;5041017;28;20293;-78
2022/05/03 07:23:11;;;;;;;7.67;6.87;;;22.20;53.50;;;-142.21;100.00;112049.66;5042115;28;20592;-79
2022/05/03 07:25:38;;;;;;;11.37;6.77;;;21.70;54.00;;;-142.21;100.00;112049.66;5036309;28;20207;-78
2022/05/03 07:28:09;;;;;;;7.70;7.00;;;21.40;55.00;;;-142.21;100.00;112049.66;5035402;28;20237;-78
2022/05/03 07:30:36;;;;;;;7.50;6.80;;;21.20;55.70;;;-142.21;100.00;112049.66;5033439;28;20512;-77
2022/05/03 07:33:04;;;;;;;7.57;6.87;;;21.10;56.30;;;-142.21;100.00;112049.66;5035109;28;20218;-78
2022/05/03 07:35:33;;;;;;;7.60;6.90;;;21.10;55.80;;;-142.21;100.00;112049.66;5034706;28;20227;-77
2022/05/03 07:38:00;;;;;;;8.63;7.83;;;21.00;56.90;;;-142.21;100.00;112049.66;5034969;28;20472;-78
2022/05/03 07:40:28;;;;;;;10.63;8.40;;;20.90;57.30;;;-142.21;100.00;112049.66;5034561;28;20207;-76
2022/05/03 07:42:56;;;;;;;8.87;7.97;;;20.70;57.60;;;-142.21;100.00;112049.66;5035095;28;20210;-79
2022/05/03 07:45:23;;;;;;;10.47;8.37;;;20.70;57.30;;;-142.21;100.00;112049.66;5034984;28;20268;-78
2022/05/03 07:47:50;;;;;;;14.50;8.47;;;20.50;57.20;;;-142.21;100.00;112049.66;5034391;28;20307;-77
2022/05/03 07:50:17;;;;;;;9.23;8.33;;;20.20;59.20;;;-142.21;100.00;112049.66;5035574;28;20321;-78
2022/05/03 07:52:46;;;;;;;9.30;8.50;;;20.20;59.70;;;-142.21;100.00;112049.66;5051425;28;20445;-78
2022/05/03 07:55:13;;;;;;;9.40;8.50;;;20.20;59.20;;;-142.21;100.00;112049.66;5054018;28;21032;-77
2022/05/03 07:57:40;;;;;;;10.37;9.13;;;20.20;59.70;;;-142.21;100.00;112049.66;5054510;28;20547;-77
2022/05/03 08:00:10;;;;;;;10.40;9.37;;;20.20;60.50;;;-142.21;100.00;112049.66;5050208;28;20370;-76
2022/05/03 08:02:37;;;;;;;9.60;8.60;;;20.30;60.60;;;-142.21;100.00;112049.66;5034131;28;20441;-77
2022/05/03 08:05:05;;;;;;;9.60;8.70;;;20.40;60.20;;;-142.21;100.00;112049.66;5034394;28;20293;-75
2022/05/03 08:07:32;;;;;;;8.93;8.10;;;20.20;61.00;;;-142.21;100.00;112049.66;5034461;28;20504;-75
2022/05/03 08:10:01;;;;;;;10.20;8.97;;;20.30;60.90;;;-142.21;100.00;112049.66;5043389;28;20488;-77
2022/05/03 08:12:28;;;;;;;9.20;8.30;;;20.50;60.80;;;-142.21;100.00;112049.66;5054124;28;20197;-78
2022/05/03 08:14:56;;;;;;;9.07;8.17;;;20.60;61.00;;;-142.21;100.00;112049.66;5053309;28;20252;-78
2022/05/03 08:17:27;;;;;;;8.47;7.60;;;20.60;61.10;;;-142.21;100.00;112049.66;5054472;28;20252;-78
2022/05/03 08:19:54;;;;;;;8.90;8.10;;;20.70;61.60;;;-142.21;100.00;112049.66;5054450;28;20268;-77
2022/05/03 08:22:21;;;;;;;8.97;8.17;;;20.60;62.00;;;-142.21;100.00;112049.66;5052979;28;20206;-77
2022/05/03 08:24:49;;;;;;;9.37;8.47;;;20.50;61.50;;;-142.21;100.00;112049.66;5051565;28;20217;-77
2022/05/03 08:27:17;;;;;;;9.70;8.80;;;20.50;61.30;;;-142.21;100.00;112049.66;5053592;28;20229;-76
2022/05/03 08:29:45;;;;;;;9.27;8.37;;;20.60;60.50;;;-142.21;100.00;112049.66;5053848;28;20641;-78
2022/05/03 08:32:13;;;;;;;9.33;8.47;;;20.70;60.40;;;-142.21;100.00;112049.66;5053301;28;20204;-78
2022/05/03 08:34:40;;;;;;;8.80;8.00;;;20.70;60.70;;;-142.21;100.00;112049.66;5053928;28;20205;-77
2022/05/03 08:42:40;;;;;;;8.80;7.90;;;20.80;60.10;;;-142.21;97.97;112049.66;5048930;28;20952;-78
2022/05/03 08:45:09;;;;;;;8.80;8.00;;;21.10;59.70;;;-142.21;100.00;112049.66;5053379;28;20206;-76
2022/05/03 08:47:38;;;;;;;9.17;8.27;;;21.40;62.00;;;-142.21;96.31;112049.66;5052986;28;20289;-77
2022/05/03 08:50:09;;;;;;;9.13;8.17;;;21.50;59.90;;;-142.21;92.01;112049.66;5053314;28;20674;-77
2022/05/03 08:52:47;;;;;;;8.43;7.63;;;21.80;58.90;;;-142.21;90.19;112049.66;5053052;28;20281;-77
2022/05/03 08:55:15;;;;;;;9.90;9.00;;;22.20;58.80;;;-142.21;83.40;112049.66;5053675;28;20189;-77
2022/05/03 08:57:45;;;;;;;9.60;7.93;;;22.50;59.00;;;-142.21;80.16;112049.66;5052130;28;20233;-78
2022/05/03 09:00:15;;;;;;;9.23;8.43;;;22.90;57.90;;;-142.21;71.90;112049.66;5052536;28;20239;-78
2022/05/03 09:02:47;;;;;;;9.77;8.77;;;23.40;56.80;;;-142.21;70.30;112049.66;5053188;28;20244;-78
2022/05/03 09:05:18;;;;;;;7.93;7.23;;;23.60;55.90;;;-142.21;77.33;112049.66;5053237;28;20206;-78
2022/05/03 09:07:49;;;;;;;7.40;6.80;;;24.80;55.10;;;-142.21;80.49;112049.66;5052503;28;20228;-77
2022/05/03 09:10:20;;;;;;;8.27;7.33;;;24.90;55.00;;;-142.21;78.68;112049.66;5053021;28;20801;-78
2022/05/03 09:12:51;;;;;;;9.93;8.13;;;24.90;53.90;;;-142.21;80.20;112049.66;5052857;28;20194;-78
2022/05/03 09:15:30;;;;;;;10.17;8.10;;;24.80;53.90;;;-142.21;78.74;112049.66;5053388;28;20641;-78
2022/05/03 09:17:58;;;;;;;8.17;7.20;;;24.90;53.60;;;-142.21;78.99;112049.66;5048026;28;20240;-77
2022/05/03 09:26:12;;;;;;;7.60;6.60;;;24.70;52.90;;;-142.21;76.93;112049.66;5032592;28;20192;-78
2022/05/03 09:28:48;;;;;;;7.63;6.93;;;24.60;53.90;;;-142.21;79.08;112049.66;5033041;28;20230;-77
2022/05/03 09:31:30;;;;;;;7.17;6.30;;;24.50;54.20;;;-142.21;76.32;112049.66;5032690;28;20305;-77
2022/05/03 09:33:59;;;;;;;6.57;5.97;;;24.40;53.30;;;-142.21;79.90;112049.66;5032489;28;20652;-78
2022/05/03 09:36:26;;;;;;;6.80;6.20;;;24.60;54.80;;;-142.21;79.49;112049.66;5032526;28;20305;-77
2022/05/03 09:38:56;;;;;;;6.80;6.20;;;24.70;54.10;;;-142.21;76.47;112049.66;5032524;28;20202;-78
2022/05/03 09:41:25;;;;;;;8.80;6.50;;;24.80;53.50;;;-142.21;74.11;112049.66;5032987;28;20192;-77
2022/05/03 09:44:10;;;;;;;6.40;5.80;;;24.90;53.30;;;-142.21;72.49;112049.66;5032652;28;20610;-78
2022/05/03 09:46:54;;;;;;;6.27;5.67;;;25.00;52.80;;;-142.21;72.87;112049.66;5057366;28;20232;-79
2022/05/03 09:49:36;;;;;;;5.87;5.37;;;25.10;52.60;;;-142.21;73.38;112049.66;5072097;28;20251;-79
2022/05/03 09:52:05;;;;;;;4.90;4.50;;;25.20;52.50;;;-142.21;64.39;112049.66;5071009;28;20271;-78
2022/05/03 09:54:48;;;;;;;4.37;3.97;;;25.40;51.50;;;-142.21;57.91;112049.66;5072889;28;20246;-79
2022/05/03 09:57:22;;;;;;;4.43;4.03;;;25.20;49.00;;;-142.21;56.90;112049.66;5071664;28;20195;-79
2022/05/03 09:59:52;;;;;;;4.03;3.63;;;25.00;49.10;;;-142.21;51.70;112049.66;5072956;28;20191;-79
2022/05/03 10:02:23;;;;;;;3.83;3.53;;;24.90;47.50;;;-142.21;53.96;112049.66;5072300;28;20213;-76
2022/05/03 10:04:53;;;;;;;3.53;3.23;;;24.90;49.20;;;-142.21;61.93;112049.66;5072557;28;20273;-78
2022/05/03 10:07:22;;;;;;;3.57;3.27;;;24.90;50.50;;;-142.21;57.79;112049.66;5072133;28;20271;-78
2022/05/03 10:09:50;;;;;;;4.50;3.83;;;25.00;49.80;;;-142.21;57.68;112049.66;5072876;28;20583;-76
2022/05/03 10:12:19;;;;;;;3.33;3.03;;;25.10;50.10;;;-142.21;56.40;112049.66;5071543;28;20676;-76
2022/05/03 10:14:50;;;;;;;3.70;3.40;;;25.20;49.90;;;-142.21;59.59;112049.66;5072305;28;20201;-78
2022/05/03 10:22:57;;;;;;;3.70;3.40;;;25.40;47.70;;;-142.21;55.61;112049.66;5053624;28;20246;-77
2022/05/03 10:25:49;;;;;;;3.43;3.00;;;25.50;49.40;;;-142.21;55.11;112049.66;5051997;28;20229;-77
2022/05/03 10:28:18;;;;;;;3.60;3.13;;;25.50;48.90;;;-142.21;53.59;112049.66;5052004;28;20190;-79
2022/05/03 10:31:14;;;;;;;3.07;2.87;;;25.60;49.80;;;-142.21;50.99;112049.66;5051771;28;20221;-79
2022/05/03 10:33:43;;;;;;;3.10;2.80;;;25.70;47.50;;;-142.21;50.58;112049.66;5051352;28;20190;-77
2022/05/03 10:36:44;;;;;;;2.80;2.60;;;25.60;48.30;;;-142.21;51.13;112049.66;5052007;28;20209;-78
2022/05/03 10:39:29;;;;;;;3.73;3.20;;;25.60;47.80;;;-142.21;53.27;112049.66;5050284;28;20211;-77
2022/05/03 10:41:59;;;;;;;3.73;3.43;;;25.80;49.10;;;-142.21;51.80;112049.66;5051487;28;20276;-78
2022/05/03 10:44:55;;;;;;;3.57;3.13;;;25.80;49.20;;;-142.21;48.71;112049.66;5049112;28;20625;-77
2022/05/03 10:47:46;;;;;;;3.70;3.40;;;26.00;47.50;;;-142.21;48.06;112049.66;5047518;28;20234;-78